Time;durP1;ratioP1;P1;durP2;ratioP2;P2;SDS_P1;SDS_P2;PMS_P1;PMS_P2;Temp;Humidity;BMP_temperature;BMP_pressure;BME280_temperature;BME280_humidity;BME280_pressure;Samples;Min_cycle;Max_cycle;Signal;HPM_P1;HPM_P2
2023/05/31 00:01:11;;;;;;;18.20;7.47;;;;;;;12.79;100.00;102393.25;5003477;28;20045;-70
2023/05/31 00:03:40;;;;;;;19.63;7.85;;;;;;;12.72;100.00;102395.75;5003431;28;20045;-66
2023/05/31 00:06:07;;;;;;;18.15;7.50;;;;;;;12.74;100.00;102395.78;5003527;28;20126;-66
2023/05/31 00:08:33;;;;;;;18.55;7.65;;;;;;;12.74;100.00;102401.06;5001521;28;20061;-71
2023/05/31 00:10:58;;;;;;;18.05;7.65;;;;;;;12.74;100.00;102401.06;5003243;28;20489;-64
2023/05/31 00:13:24;;;;;;;18.92;8.27;;;;;;;12.62;100.00;102401.72;5003577;28;20034;-65
2023/05/31 00:15:49;;;;;;;18.45;7.75;;;;;;;12.60;100.00;102400.81;5003276;28;20120;-73
2023/05/31 00:18:15;;;;;;;18.58;8.32;;;;;;;12.53;100.00;102397.13;5002733;28;20068;-71
2023/05/31 00:20:40;;;;;;;18.58;7.88;;;;;;;12.55;100.00;102395.41;4984985;28;20034;-70
2023/05/31 00:23:05;;;;;;;19.40;8.13;;;;;;;12.45;100.00;102401.41;5005475;28;20474;-71
2023/05/31 00:25:31;;;;;;;18.42;8.10;;;;;;;12.37;100.00;102400.31;5002931;28;20476;-71
2023/05/31 00:27:56;;;;;;;19.15;8.25;;;;;;;12.43;100.00;102396.91;5004117;28;20087;-71
2023/05/31 00:30:22;;;;;;;19.10;7.97;;;;;;;12.37;100.00;102398.56;5001504;28;20031;-71
2023/05/31 00:32:47;;;;;;;18.48;7.82;;;;;;;12.36;100.00;102399.44;5001728;28;20038;-71
2023/05/31 00:35:13;;;;;;;19.38;8.20;;;;;;;12.31;100.00;102401.09;5001883;28;20034;-72
2023/05/31 00:37:38;;;;;;;20.02;8.05;;;;;;;12.28;100.00;102393.06;5003386;28;20466;-71
2023/05/31 00:40:07;;;;;;;19.08;8.05;;;;;;;12.20;100.00;102400.88;5002319;28;20034;-71
2023/05/31 00:42:33;;;;;;;18.88;7.93;;;;;;;12.18;100.00;102397.25;5001565;28;20034;-71
2023/05/31 00:44:58;;;;;;;19.67;7.97;;;;;;;12.15;100.00;102399.84;5001286;28;20042;-71
2023/05/31 00:47:25;;;;;;;19.10;8.30;;;;;;;12.10;100.00;102401.50;5001892;28;20026;-71
2023/05/31 00:49:52;;;;;;;19.80;8.65;;;;;;;12.12;100.00;102402.44;5002468;28;20030;-71
2023/05/31 00:52:18;;;;;;;19.25;8.25;;;;;;;12.15;100.00;102404.25;5002225;28;20124;-71
2023/05/31 00:54:43;;;;;;;19.33;8.60;;;;;;;12.12;100.00;102405.09;5001762;28;20057;-70
2023/05/31 00:57:09;;;;;;;18.92;8.05;;;;;;;12.05;100.00;102403.16;4984058;28;20466;-70
2023/05/31 00:59:34;;;;;;;18.65;8.02;;;;;;;11.94;100.00;102407.31;5000244;28;20030;-70
2023/05/31 01:02:03;;;;;;;18.50;8.32;;;;;;;11.91;100.00;102410.75;5003320;28;20034;-70
2023/05/31 01:04:30;;;;;;;19.15;8.45;;;;;;;11.98;100.00;102402.09;5003287;28;20168;-70
2023/05/31 01:06:56;;;;;;;18.90;8.32;;;;;;;11.93;100.00;102402.84;5002490;28;20034;-70
2023/05/31 01:09:23;;;;;;;19.27;8.23;;;;;;;11.90;100.00;102408.03;4998169;28;20054;-70
2023/05/31 01:12:07;;;;;;;18.58;8.35;;;;;;;11.81;100.00;102414.94;4985081;28;20449;-70
2023/05/31 01:15:08;;;;;;;19.70;8.70;;;;;;;11.83;100.00;102407.03;5002478;28;20038;-70
2023/05/31 01:17:36;;;;;;;19.80;8.50;;;;;;;11.72;100.00;102401.44;5002420;28;20034;-66
2023/05/31 01:20:08;;;;;;;19.38;8.60;;;;;;;11.65;100.00;102412.78;5002350;28;20026;-65
2023/05/31 01:23:01;;;;;;;19.38;8.30;;;;;;;11.66;100.00;102418.13;5001888;28;20508;-67
2023/05/31 01:25:35;;;;;;;20.80;8.30;;;;;;;11.71;100.00;102415.56;5001907;28;20405;-66
2023/05/31 01:28:05;;;;;;;19.25;8.50;;;;;;;11.67;100.00;102411.06;5003103;28;20109;-65
2023/05/31 01:30:35;;;;;;;19.08;8.43;;;;;;;11.68;100.00;102412.84;5001853;28;20042;-64
2023/05/31 01:33:00;;;;;;;20.02;8.50;;;;;;;11.65;100.00;102404.84;5001126;28;20058;-65
2023/05/31 01:35:27;;;;;;;19.40;8.70;;;;;;;11.61;100.00;102408.25;5002777;28;20030;-64
2023/05/31 01:37:52;;;;;;;19.45;8.43;;;;;;;11.62;100.00;102403.00;5000228;28;20057;-66
2023/05/31 01:40:18;;;;;;;19.85;8.30;;;;;;;11.51;100.00;102402.72;5004675;28;20065;-63
2023/05/31 01:42:45;;;;;;;19.02;8.38;;;;;;;11.47;100.00;102413.19;5006203;28;20038;-65
2023/05/31 01:45:12;;;;;;;19.90;8.80;;;;;;;11.40;100.00;102406.88;5006348;28;20061;-66
2023/05/31 01:47:40;;;;;;;19.75;8.68;;;;;;;11.39;100.00;102399.75;5003218;28;20049;-66
2023/05/31 01:50:07;;;;;;;19.40;8.80;;;;;;;11.29;100.00;102397.75;5005273;28;20057;-68
2023/05/31 01:52:34;;;;;;;20.63;8.88;;;;;;;11.26;100.00;102397.66;5005664;28;20556;-65
2023/05/31 01:55:01;;;;;;;19.55;8.98;;;;;;;11.29;100.00;102395.97;5005638;28;20022;-68
2023/05/31 01:57:30;;;;;;;19.40;8.68;;;;;;;11.30;100.00;102394.22;5004872;28;20034;-71
2023/05/31 01:59:58;;;;;;;19.90;8.82;;;;;;;11.29;100.00;102397.75;5005295;28;20026;-65
2023/05/31 02:02:24;;;;;;;19.73;8.60;;;;;;;11.14;100.00;102391.19;5005464;28;20473;-67
2023/05/31 02:04:50;;;;;;;21.15;8.70;;;;;;;11.21;100.00;102383.41;5006151;28;20040;-66
2023/05/31 02:07:16;;;;;;;20.45;9.05;;;;;;;11.11;100.00;102385.81;5006201;28;20072;-67
2023/05/31 02:09:41;;;;;;;19.63;8.85;;;;;;;11.14;100.00;102387.66;5004957;28;20042;-63
2023/05/31 02:12:07;;;;;;;20.25;8.70;;;;;;;11.15;100.00;102381.47;5004758;28;20389;-67
2023/05/31 02:14:32;;;;;;;21.10;8.80;;;;;;;11.16;100.00;102389.47;5004945;28;20038;-67
2023/05/31 02:16:58;;;;;;;19.35;8.55;;;;;;;11.17;100.00;102387.72;5005171;28;20425;-68
2023/05/31 02:19:25;;;;;;;20.05;9.10;;;;;;;11.14;100.00;102388.53;4988264;28;20170;-67
2023/05/31 02:21:52;;;;;;;20.75;9.00;;;;;;;11.12;100.00;102379.63;5005484;28;20470;-67
2023/05/31 02:24:17;;;;;;;19.27;8.52;;;;;;;11.03;100.00;102384.69;5004085;28;20133;-68
2023/05/31 02:26:42;;;;;;;21.55;8.95;;;;;;;11.03;100.00;102375.88;5004470;28;20117;-70
2023/05/31 02:29:09;;;;;;;20.50;9.13;;;;;;;10.97;100.00;102374.84;5004289;28;20072;-68
2023/05/31 02:31:34;;;;;;;19.48;8.80;;;;;;;10.97;100.00;102381.91;5005364;28;20124;-67
2023/05/31 02:34:00;;;;;;;20.00;9.30;;;;;;;10.96;100.00;102382.75;5004688;28;20030;-67
2023/05/31 02:36:28;;;;;;;20.98;9.32;;;;;;;10.95;100.00;102384.50;5005535;28;20017;-67
2023/05/31 02:38:53;;;;;;;20.25;8.75;;;;;;;10.95;100.00;102375.66;5003945;28;20536;-66
2023/05/31 02:41:19;;;;;;;20.63;9.35;;;;;;;10.91;100.00;102381.75;5005499;28;20026;-67
2023/05/31 02:43:44;;;;;;;20.83;9.60;;;;;;;10.79;100.00;102382.25;4969863;28;20037;-69
2023/05/31 02:46:10;;;;;;;20.33;9.50;;;;;;;10.73;100.00;102383.03;5005733;28;20044;-70
2023/05/31 02:48:35;;;;;;;20.83;9.20;;;;;;;10.74;100.00;102382.16;5005109;28;20030;-70
2023/05/31 02:51:00;;;;;;;20.25;9.43;;;;;;;10.73;100.00;102383.03;5003556;28;20033;-72
2023/05/31 02:53:26;;;;;;;20.80;10.00;;;;;;;10.74;100.00;102381.25;5004992;28;20027;-70
2023/05/31 02:55:52;;;;;;;21.70;10.07;;;;;;;10.66;100.00;102382.78;5004384;28;20364;-72
2023/05/31 02:58:17;;;;;;;20.50;9.70;;;;;;;10.70;100.00;102379.38;5003884;28;20042;-70
2023/05/31 03:00:44;;;;;;;21.55;10.07;;;;;;;10.63;100.00;102383.63;5004574;28;20390;-70
2023/05/31 03:03:10;;;;;;;20.75;9.65;;;;;;;10.67;100.00;102380.19;4986814;28;20129;-72
2023/05/31 03:05:36;;;;;;;20.27;9.52;;;;;;;10.67;100.00;102389.88;5004230;28;20084;-72
2023/05/31 03:08:01;;;;;;;21.40;10.23;;;;;;;10.62;100.00;102387.09;5000820;28;20056;-71
2023/05/31 03:10:26;;;;;;;22.45;10.68;;;;;;;10.57;100.00;102388.69;4987922;28;20057;-70
2023/05/31 03:12:52;;;;;;;21.30;10.02;;;;;;;10.58;100.00;102386.09;5003881;28;20042;-70
2023/05/31 03:15:17;;;;;;;20.88;10.23;;;;;;;10.61;100.00;102382.66;5003876;28;20113;-73
2023/05/31 03:17:42;;;;;;;21.77;10.18;;;;;;;10.54;100.00;102380.69;5006035;28;20041;-72
2023/05/31 03:20:08;;;;;;;20.80;10.20;;;;;;;10.50;100.00;102385.00;5003278;28;20084;-71
2023/05/31 03:22:34;;;;;;;21.38;10.20;;;;;;;10.49;100.00;102384.97;5006327;28;20038;-72
2023/05/31 03:24:59;;;;;;;21.20;10.07;;;;;;;10.51;100.00;102385.88;5004691;28;20037;-73
2023/05/31 03:27:25;;;;;;;20.70;10.10;;;;;;;10.48;100.00;102380.50;4987297;28;20071;-72
2023/05/31 03:29:50;;;;;;;21.83;10.25;;;;;;;10.44;100.00;102385.72;5001611;28;20146;-72
2023/05/31 03:32:15;;;;;;;21.55;10.27;;;;;;;10.46;100.00;102385.75;5004008;28;20026;-71
2023/05/31 03:34:41;;;;;;;21.88;10.50;;;;;;;10.46;100.00;102389.28;5001944;28;20041;-73
2023/05/31 03:37:06;;;;;;;21.60;10.75;;;;;;;10.43;100.00;102385.66;5004350;28;20081;-72
2023/05/31 03:39:31;;;;;;;21.67;10.70;;;;;;;10.39;100.00;102384.66;5003293;28;20033;-71
2023/05/31 03:41:57;;;;;;;22.60;10.80;;;;;;;10.33;100.00;102383.56;5004035;28;20109;-72
2023/05/31 03:44:22;;;;;;;23.02;10.90;;;;;;;10.34;100.00;102388.94;5004356;28;20037;-73
2023/05/31 03:46:47;;;;;;;21.85;10.98;;;;;;;10.37;100.00;102386.38;5002622;28;20465;-72
2023/05/31 03:49:13;;;;;;;22.50;10.75;;;;;;;10.42;100.00;102390.03;5002846;28;20112;-71
2023/05/31 03:51:38;;;;;;;21.77;10.77;;;;;;;10.38;100.00;102385.53;4986367;28;20421;-72
2023/05/31 03:54:04;;;;;;;22.48;10.90;;;;;;;10.36;100.00;102388.97;5003246;28;20141;-71
2023/05/31 03:56:29;;;;;;;22.10;10.88;;;;;;;10.36;100.00;102386.34;5003119;28;20481;-71
2023/05/31 03:58:55;;;;;;;22.30;10.93;;;;;;;10.39;100.00;102395.25;4999840;28;20042;-72
2023/05/31 04:01:20;;;;;;;22.45;11.30;;;;;;;10.39;100.00;102389.06;5003540;28;20030;-71
2023/05/31 04:03:46;;;;;;;23.23;11.00;;;;;;;10.45;100.00;102394.53;5003622;28;20046;-72
2023/05/31 04:06:11;;;;;;;22.17;11.20;;;;;;;10.48;100.00;102383.16;5003819;28;20026;-72
2023/05/31 04:08:36;;;;;;;21.88;10.63;;;;;;;10.48;100.00;102376.09;5002023;28;20434;-72
2023/05/31 04:11:02;;;;;;;23.20;11.43;;;;;;;10.48;100.00;102381.41;5001945;28;20432;-72
2023/05/31 04:13:28;;;;;;;24.05;11.68;;;;;;;10.46;100.00;102391.94;5003253;28;20045;-72
2023/05/31 04:15:53;;;;;;;22.48;10.90;;;;;;;10.56;100.00;102381.66;5003002;28;20492;-71
2023/05/31 04:18:19;;;;;;;22.20;10.98;;;;;;;10.54;100.00;102380.69;5001829;28;20149;-71
2023/05/31 04:20:44;;;;;;;24.08;11.60;;;;;;;10.55;100.00;102375.44;5003427;28;20030;-72
2023/05/31 04:23:10;;;;;;;22.48;11.65;;;;;;;10.58;100.00;102385.22;5002245;28;20038;-72
2023/05/31 04:25:35;;;;;;;23.00;11.43;;;;;;;10.60;100.00;102384.41;5002979;28;20028;-71
2023/05/31 04:28:01;;;;;;;23.95;11.98;;;;;;;10.59;100.00;102387.03;4999950;28;20117;-70
2023/05/31 04:30:27;;;;;;;24.38;12.30;;;;;;;10.68;100.00;102389.03;5003032;28;20045;-72
2023/05/31 04:32:52;;;;;;;24.90;12.25;;;;;;;10.68;100.00;102389.03;4985282;28;20112;-71
2023/05/31 04:35:18;;;;;;;24.40;12.52;;;;;;;10.74;100.00;102390.06;5001737;28;20112;-72
2023/05/31 04:37:44;;;;;;;23.25;12.55;;;;;;;10.81;100.00;102388.50;5001524;28;20031;-71
2023/05/31 04:40:10;;;;;;;24.50;12.50;;;;;;;10.81;100.00;102392.03;5002496;28;20573;-71
2023/05/31 04:42:36;;;;;;;23.55;12.35;;;;;;;10.86;100.00;102391.28;5001690;28;20031;-70
2023/05/31 04:45:04;;;;;;;22.92;12.35;;;;;;;10.94;100.00;102389.75;5002266;28;20038;-71
2023/05/31 04:47:33;;;;;;;25.33;12.90;;;;;;;10.98;100.00;102378.41;5001579;28;20038;-72
2023/05/31 04:49:59;;;;;;;24.20;12.75;;;;;;;10.97;100.00;102384.53;5003077;28;20030;-72
2023/05/31 04:52:32;;;;;;;25.25;13.57;;;;;;;11.02;100.00;102388.19;5002607;28;20037;-72
2023/05/31 04:54:58;;;;;;;24.52;12.95;;;;;;;11.09;100.00;102387.50;5002301;28;20052;-72
2023/05/31 04:57:26;;;;;;;25.42;13.75;;;;;;;11.16;100.00;102392.09;5000838;28;20541;-72
2023/05/31 04:59:52;;;;;;;24.25;13.02;;;;;;;11.19;100.00;102386.00;5002424;28;20041;-72
2023/05/31 05:02:18;;;;;;;24.88;12.93;;;;;;;11.24;100.00;102392.34;5003143;28;20400;-72
2023/05/31 05:04:44;;;;;;;25.52;13.63;;;;;;;11.26;100.00;102387.97;5001081;28;20046;-71
2023/05/31 05:07:09;;;;;;;24.35;13.27;;;;;;;11.32;100.00;102387.22;5002026;28;20048;-70
2023/05/31 05:09:35;;;;;;;26.45;14.27;;;;;;;11.35;100.00;102382.00;4983478;28;20046;-73
2023/05/31 05:12:02;;;;;;;25.13;13.43;;;;;;;11.46;100.00;102388.47;5002198;28;20047;-72
2023/05/31 05:14:29;;;;;;;26.35;14.20;;;;;;;11.51;100.00;102393.88;4983745;28;20378;-73
2023/05/31 05:16:54;;;;;;;26.05;14.05;;;;;;;11.56;100.00;102388.69;5002680;28;20105;-72
2023/05/31 05:19:20;;;;;;;26.38;13.88;;;;;;;11.61;100.00;102389.72;5002028;28;20133;-72
2023/05/31 05:21:45;;;;;;;25.23;14.02;;;;;;;11.69;100.00;102396.06;5003418;28;20034;-71
2023/05/31 05:24:11;;;;;;;25.08;13.55;;;;;;;11.72;100.00;102393.50;5000783;28;20038;-72
2023/05/31 05:26:36;;;;;;;25.92;14.38;;;;;;;11.78;100.00;102395.41;4984772;28;20053;-71
2023/05/31 05:29:02;;;;;;;25.45;14.02;;;;;;;11.85;100.00;102402.66;5003332;28;20030;-73
2023/05/31 05:31:27;;;;;;;25.75;14.18;;;;;;;11.89;100.00;102395.69;5002669;28;20032;-73
2023/05/31 05:33:52;;;;;;;25.90;13.88;;;;;;;11.97;100.00;102395.03;5002245;28;20461;-73
2023/05/31 05:36:18;;;;;;;25.27;13.77;;;;;;;12.06;100.00;102399.66;5002618;28;20093;-74
2023/05/31 05:38:44;;;;;;;26.83;13.95;;;;;;;12.09;100.00;102399.72;5001303;28;20072;-73
2023/05/31 05:41:12;;;;;;;25.45;14.10;;;;;;;12.14;100.00;102405.13;5001251;28;20031;-72
2023/05/31 05:43:38;;;;;;;25.55;13.75;;;;;;;12.19;100.00;102407.00;5000898;28;20034;-72
2023/05/31 05:46:03;;;;;;;26.15;14.43;;;;;;;12.25;100.00;102402.72;5001407;28;20450;-73
2023/05/31 05:48:29;;;;;;;27.00;14.30;;;;;;;12.29;100.00;102397.50;5000277;28;20109;-72
2023/05/31 05:50:55;;;;;;;25.90;13.68;;;;;;;12.32;100.00;102400.22;5002294;28;20464;-71
2023/05/31 05:53:20;;;;;;;24.55;13.93;;;;;;;12.38;100.00;102402.13;5002669;28;20064;-70
2023/05/31 05:55:52;;;;;;;26.27;13.80;;;;;;;12.41;100.00;102407.50;5001632;28;20030;-71
2023/05/31 05:58:18;;;;;;;27.70;15.67;;;;;;;12.44;100.00;102404.91;5002971;28;20479;-67
2023/05/31 06:00:45;;;;;;;26.92;14.13;;;;;;;12.49;100.00;102405.88;4999890;28;20289;-70
2023/05/31 06:03:11;;;;;;;26.15;14.65;;;;;;;12.60;100.00;102398.16;5001997;28;20030;-72
2023/05/31 06:05:37;;;;;;;25.92;14.55;;;;;;;12.67;100.00;102412.47;5002139;28;20453;-67
2023/05/31 06:08:02;;;;;;;26.27;14.38;;;;;;;12.67;100.00;102402.72;4998363;28;20052;-66
2023/05/31 06:10:28;;;;;;;26.63;14.10;;;;;;;12.75;100.00;102407.31;5001808;28;20034;-67
2023/05/31 06:12:53;;;;;;;26.08;14.38;;;;;;;12.75;100.00;102394.91;5002984;28;20389;-68
2023/05/31 06:15:19;;;;;;;26.27;13.48;;;;;;;12.78;100.00;102391.44;5000379;28;20850;-67
2023/05/31 06:17:45;;;;;;;25.25;13.90;;;;;;;12.80;100.00;102397.66;5001488;28;20096;-68
2023/05/31 06:20:10;;;;;;;25.65;14.18;;;;;;;12.86;100.00;102406.66;4983402;28;20090;-68
2023/05/31 06:22:37;;;;;;;26.27;14.27;;;;;;;12.91;100.00;102399.66;4999985;28;20042;-68
2023/05/31 06:25:02;;;;;;;26.27;14.30;;;;;;;13.05;100.00;102391.97;5000643;28;20033;-70
2023/05/31 06:27:27;;;;;;;27.10;14.32;;;;;;;13.04;100.00;102403.44;5004565;28;20114;-72
2023/05/31 06:29:57;;;;;;;25.88;14.65;;;;;;;13.11;100.00;102412.44;5004552;28;20118;-67
2023/05/31 06:32:25;;;;;;;26.58;15.27;;;;;;;13.18;100.00;102413.44;5004122;28;20125;-69
2023/05/31 06:34:50;;;;;;;25.35;14.60;;;;;;;13.27;100.00;102410.94;5004643;28;20069;-70
2023/05/31 06:37:15;;;;;;;26.25;14.15;;;;;;;13.33;100.00;102407.50;5003923;28;20066;-68
2023/05/31 06:39:41;;;;;;;26.52;13.73;;;;;;;13.38;100.00;102413.81;5003830;28;20034;-69
2023/05/31 06:42:06;;;;;;;27.15;13.80;;;;;;;13.41;100.00;102416.53;5004623;28;20029;-69
2023/05/31 06:44:32;;;;;;;27.77;14.20;;;;;;;13.49;100.00;102424.66;5003925;28;20025;-71
2023/05/31 06:46:57;;;;;;;24.52;13.48;;;;;;;13.56;100.00;102418.56;5004722;28;20033;-67
2023/05/31 06:49:22;;;;;;;27.15;14.00;;;;;;;13.59;100.00;102408.88;5002642;28;20045;-71
2023/05/31 06:51:48;;;;;;;27.15;14.32;;;;;;;13.67;100.00;102413.44;4987177;28;20026;-70
2023/05/31 06:54:13;;;;;;;25.58;14.20;;;;;;;13.81;100.00;102408.34;5005494;28;20041;-68
2023/05/31 06:56:39;;;;;;;24.80;13.30;;;;;;;13.93;100.00;102417.38;5004535;28;20046;-70
2023/05/31 06:59:04;;;;;;;26.10;13.88;;;;;;;14.02;100.00;102418.41;5003399;28;20063;-70
2023/05/31 07:01:29;;;;;;;26.65;14.25;;;;;;;14.13;100.00;102414.16;5003911;28;20034;-66
2023/05/31 07:03:55;;;;;;;25.75;14.05;;;;;;;14.22;100.00;102422.25;4999474;28;20118;-67
2023/05/31 07:06:20;;;;;;;26.58;13.55;;;;;;;14.30;100.00;102417.06;5004843;28;20029;-70
2023/05/31 07:08:46;;;;;;;25.33;13.27;;;;;;;14.34;100.00;102410.88;5002977;28;20046;-68
2023/05/31 07:11:12;;;;;;;25.13;13.57;;;;;;;14.44;100.00;102410.13;5003682;28;20497;-68
2023/05/31 07:13:37;;;;;;;25.77;13.30;;;;;;;14.55;100.00;102407.63;5004725;28;20097;-69
2023/05/31 07:16:03;;;;;;;26.00;13.23;;;;;;;14.62;100.00;102405.94;4986150;28;20038;-67
2023/05/31 07:18:28;;;;;;;26.02;13.32;;;;;;;14.62;100.00;102412.19;5002072;28;21641;-68
2023/05/31 07:20:56;;;;;;;25.48;13.13;;;;;;;14.71;100.00;102403.41;5004204;28;20018;-69
2023/05/31 07:23:23;;;;;;;26.13;13.20;;;;;;;14.86;100.00;102397.38;4986138;28;20065;-69
2023/05/31 07:25:48;;;;;;;24.40;12.88;;;;;;;14.96;100.00;102407.25;5004932;28;20026;-67
2023/05/31 07:28:14;;;;;;;25.92;13.07;;;;;;;15.00;100.00;102392.19;5003642;28;20044;-69
2023/05/31 07:30:39;;;;;;;24.83;12.98;;;;;;;15.09;100.00;102394.06;5003980;28;20037;-68
2023/05/31 07:33:05;;;;;;;27.02;13.13;;;;;;;15.15;100.00;102389.69;5003110;28;20026;-68
2023/05/31 07:35:30;;;;;;;23.70;12.77;;;;;;;15.22;100.00;102392.38;5003618;28;20026;-67
2023/05/31 07:37:55;;;;;;;26.30;13.13;;;;;;;15.29;100.00;102391.56;5000929;28;20161;-70
2023/05/31 07:40:21;;;;;;;25.08;12.65;;;;;;;15.45;100.00;102393.53;5003664;28;20037;-68
2023/05/31 07:42:46;;;;;;;26.58;12.80;;;;;;;15.55;100.00;102394.47;5004512;28;20034;-68
2023/05/31 07:45:11;;;;;;;25.80;12.18;;;;;;;15.69;100.00;102391.91;4986716;28;20052;-67
2023/05/31 07:47:37;;;;;;;24.35;11.85;;;;;;;15.79;100.00;102390.25;4984808;28;20026;-67
2023/05/31 07:50:03;;;;;;;27.15;12.38;;;;;;;15.88;100.00;102384.97;5003851;28;20466;-67
2023/05/31 07:52:29;;;;;;;26.30;12.63;;;;;;;15.97;100.00;102395.69;4986619;28;20512;-68
2023/05/31 07:54:54;;;;;;;26.75;11.93;;;;;;;16.11;100.00;102392.25;5004588;28;20026;-72
2023/05/31 07:57:20;;;;;;;25.65;12.70;;;;;;;16.23;100.00;102389.63;5003440;28;20076;-74
2023/05/31 07:59:45;;;;;;;24.83;12.25;;;;;;;16.32;100.00;102392.34;5002587;28;20089;-71
2023/05/31 08:02:10;;;;;;;24.27;11.75;;;;;;;16.43;100.00;102386.19;5004051;28;20059;-72
2023/05/31 08:04:36;;;;;;;24.58;11.75;;;;;;;16.49;100.00;102378.19;5003116;28;20066;-73
2023/05/31 08:07:01;;;;;;;25.08;11.55;;;;;;;16.52;100.00;102373.75;5002613;28;20026;-71
2023/05/31 08:09:27;;;;;;;26.15;11.70;;;;;;;16.67;100.00;102372.94;5002984;28;20069;-73
2023/05/31 08:11:52;;;;;;;24.80;11.32;;;;;;;16.91;100.00;102373.91;5000485;28;20488;-67
2023/05/31 08:14:18;;;;;;;24.65;11.20;;;;;;;17.08;100.00;102376.59;5003102;28;20065;-72
2023/05/31 08:16:43;;;;;;;24.27;10.75;;;;;;;17.28;100.00;102368.59;5003124;28;20400;-65
2023/05/31 08:19:08;;;;;;;23.77;11.30;;;;;;;17.46;100.00;102377.50;5003006;28;20038;-70
2023/05/31 08:21:36;;;;;;;23.00;10.32;;;;;;;17.47;100.00;102374.84;5002886;28;20022;-68
2023/05/31 08:24:02;;;;;;;23.38;10.70;;;;;;;17.51;100.00;102381.09;5000470;28;20673;-74
2023/05/31 08:26:28;;;;;;;24.80;10.90;;;;;;;17.65;100.00;102378.41;5003180;28;20061;-70
2023/05/31 08:28:53;;;;;;;23.55;10.90;;;;;;;17.80;100.00;102375.72;5002385;28;20037;-71
2023/05/31 08:31:19;;;;;;;23.98;10.43;;;;;;;17.94;100.00;102375.75;5003047;28;20041;-71
2023/05/31 08:33:58;;;;;;;25.27;10.57;;;;;;;18.08;100.00;102378.38;5002762;28;20032;-66
2023/05/31 08:36:25;;;;;;;23.67;10.30;;;;;;;18.29;100.00;102366.72;5001468;28;20037;-72
2023/05/31 08:38:50;;;;;;;23.88;10.70;;;;;;;18.42;100.00;102364.84;5004702;28;20033;-68
2023/05/31 08:41:17;;;;;;;25.05;10.57;;;;;;;18.57;100.00;102367.47;5002782;28;20033;-73
2023/05/31 08:43:44;;;;;;;24.67;10.48;;;;;;;18.67;100.00;102370.09;5002467;28;20124;-71
2023/05/31 08:46:10;;;;;;;24.15;10.52;;;;;;;18.88;100.00;102369.13;4985493;28;20113;-71
2023/05/31 08:48:52;;;;;;;24.08;10.38;;;;;;;19.06;100.00;102360.06;5003027;28;20065;-71
2023/05/31 08:51:18;;;;;;;23.33;9.70;;;;;;;19.26;100.00;102373.31;5002098;28;20033;-76
2023/05/31 08:53:46;;;;;;;25.08;10.07;;;;;;;19.33;94.58;102365.22;5002115;28;20034;-73
2023/05/31 08:56:12;;;;;;;23.48;9.43;;;;;;;19.57;95.55;102362.34;5001926;28;20041;-72
2023/05/31 08:58:38;;;;;;;22.52;9.20;;;;;;;19.71;84.00;102354.16;5000456;28;20118;-73
2023/05/31 09:01:05;;;;;;;24.60;9.95;;;;;;;19.83;84.33;102364.78;5002405;28;20122;-73
2023/05/31 09:03:32;;;;;;;21.85;9.43;;;;;;;19.91;83.81;102352.19;5002800;28;20455;-69
2023/05/31 09:05:57;;;;;;;23.15;9.43;;;;;;;20.10;84.73;102347.50;5003483;28;20032;-66
2023/05/31 09:08:23;;;;;;;20.08;8.40;;;;;;;20.23;81.18;102350.03;5004101;28;20511;-78
2023/05/31 09:10:49;;;;;;;22.13;9.48;;;;;;;20.36;77.94;102354.34;5002403;28;20041;-69
2023/05/31 09:13:15;;;;;;;23.48;9.52;;;;;;;20.44;78.08;102352.44;5002141;28;20101;-68
2023/05/31 09:15:43;;;;;;;23.35;8.98;;;;;;;20.69;78.77;102346.78;5001930;28;20072;-72
2023/05/31 09:18:18;;;;;;;22.88;8.50;;;;;;;20.63;75.86;102339.66;5002917;28;20025;-70
2023/05/31 09:20:46;;;;;;;22.60;8.43;;;;;;;20.96;74.61;102352.66;5002389;28;20053;-66
2023/05/31 09:23:11;;;;;;;22.65;8.52;;;;;;;21.19;68.95;102347.81;4999087;28;20038;-67
2023/05/31 09:25:51;;;;;;;22.98;8.90;;;;;;;21.23;70.59;102340.56;5001936;28;20036;-66
2023/05/31 09:28:18;;;;;;;22.15;8.18;;;;;;;21.25;69.19;102341.44;5002526;28;20057;-66
2023/05/31 09:30:44;;;;;;;21.50;8.13;;;;;;;21.52;67.09;102345.50;5002129;28;20072;-67
2023/05/31 09:33:10;;;;;;;20.33;7.82;;;;;;;21.81;63.77;102335.09;5000702;28;20068;-68
2023/05/31 09:35:35;;;;;;;21.55;8.10;;;;;;;21.83;61.88;102346.69;5001375;28;20042;-68
2023/05/31 09:38:06;;;;;;;21.05;7.88;;;;;;;21.96;61.98;102339.28;5000301;28;20381;-68
2023/05/31 09:40:32;;;;;;;22.60;8.02;;;;;;;22.19;61.36;102331.66;5001444;28;20026;-68
2023/05/31 09:42:59;;;;;;;20.30;7.38;;;;;;;22.20;59.60;102328.00;5001985;28;20207;-66
2023/05/31 09:45:24;;;;;;;21.40;7.22;;;;;;;22.34;61.80;102326.84;5002472;28;20030;-66
2023/05/31 09:47:51;;;;;;;19.05;6.55;;;;;;;22.61;57.57;102312.75;5000620;28;20026;-67
2023/05/31 09:50:18;;;;;;;18.90;6.03;;;;;;;22.85;56.32;102315.84;4984077;28;20062;-66
2023/05/31 09:52:45;;;;;;;20.58;7.10;;;;;;;22.87;55.28;102313.97;5001254;28;20061;-66
2023/05/31 09:55:12;;;;;;;19.75;6.57;;;;;;;23.11;54.26;102314.31;5001089;28;20026;-67
2023/05/31 09:57:40;;;;;;;20.83;7.05;;;;;;;23.32;52.84;102311.06;5000707;28;20038;-68
2023/05/31 10:00:18;;;;;;;20.98;6.55;;;;;;;24.37;51.62;102320.78;4997727;28;20026;-69
2023/05/31 10:02:48;;;;;;;20.08;6.05;;;;;;;26.13;46.54;102320.28;5006922;28;20065;-71
2023/05/31 10:05:15;;;;;;;21.20;6.20;;;;;;;27.69;42.84;102315.75;5005717;28;20099;-74
2023/05/31 10:07:42;;;;;;;19.83;5.88;;;;;;;28.97;40.09;102317.91;5005687;28;20031;-71
2023/05/31 10:10:09;;;;;;;17.67;5.28;;;;;;;29.55;35.83;102320.34;5005184;28;20108;-68
2023/05/31 10:13:00;;;;;;;19.27;5.97;;;;;;;29.98;37.60;102309.00;5004041;28;20038;-77
2023/05/31 10:15:26;;;;;;;19.83;5.70;;;;;;;30.67;34.92;102301.53;5005524;28;20034;-72
2023/05/31 10:18:14;;;;;;;19.40;5.75;;;;;;;31.36;35.69;102312.94;4983472;28;20080;-72
2023/05/31 10:20:51;;;;;;;18.70;5.65;;;;;;;31.68;33.00;102312.84;5002480;28;20018;-67
2023/05/31 10:23:23;;;;;;;19.77;5.97;;;;;;;31.84;31.28;102299.09;5004072;28;20037;-72
2023/05/31 10:25:51;;;;;;;;;;;;;;;32.45;32.12;102296.13;5005199;28;20425;-75
2023/05/31 10:28:24;;;;;;;19.02;5.15;;;;;;;31.84;31.83;102301.81;5007820;28;19925;-76
2023/05/31 10:30:51;;;;;;;17.77;5.20;;;;;;;32.66;29.77;102291.06;5005362;28;20052;-74
2023/05/31 10:33:19;;;;;;;16.52;5.03;;;;;;;32.71;29.63;102288.06;5005819;28;20070;-77
2023/05/31 10:35:45;;;;;;;18.63;5.03;;;;;;;33.02;27.92;102289.59;5004638;28;20533;-76
2023/05/31 10:38:12;;;;;;;17.23;4.30;;;;;;;33.60;27.22;102273.69;5005606;28;20113;-73
2023/05/31 10:40:42;;;;;;;15.20;4.50;;;;;;;33.50;27.78;102265.25;5005523;28;20038;-74
2023/05/31 10:43:34;;;;;;;19.00;5.03;;;;;;;33.55;29.01;102267.66;5004715;28;20080;-73
2023/05/31 10:46:03;;;;;;;17.20;4.80;;;;;;;33.77;27.06;102274.38;5005092;28;20109;-77
2023/05/31 10:48:45;;;;;;;17.55;4.93;;;;;;;34.03;27.84;102259.66;5003794;28;20385;-80
2023/05/31 10:51:12;;;;;;;18.95;4.55;;;;;;;34.03;26.45;102256.91;5005356;28;20397;-77
2023/05/31 10:53:39;;;;;;;16.48;4.45;;;;;;;34.31;26.63;102249.41;5005107;28;20460;-69
2023/05/31 10:56:10;;;;;;;14.13;3.50;;;;;;;34.73;24.41;102254.47;5005198;28;20105;-69
2023/05/31 10:58:38;;;;;;;18.42;4.35;;;;;;;35.08;24.28;102262.75;5002393;28;20050;-69
2023/05/31 11:01:06;;;;;;;15.50;4.20;;;;;;;34.92;23.84;102243.88;5003860;28;20033;-67
2023/05/31 11:03:34;;;;;;;17.17;4.18;;;;;;;34.11;25.94;102252.72;5001473;28;20035;-69
2023/05/31 11:06:04;;;;;;;15.68;4.10;;;;;;;34.58;24.49;102248.28;5004346;28;20019;-71